JO98T CYYZ-KJFK
Flight info
| Callsign | JO98T |
|---|---|
| Flight time | N/A |
| Altitude | 30000 |
| Route | KEPTA3 BMPAH DCT AEVON DCT EXTOL Q140 YODAA DCT IGN IGN1 |
| Aircraft | B737/M-SDE2E3FGHIRWXY/LB1 |
Departure
| Time | 2026-05-06 02:01 |
|---|---|
| Airport | Toronto Pearson International Airport (CYYZ) |
Arrival
| Time | N/A |
|---|---|
| Airport | John F. Kennedy International Airport (KJFK) |
| Time | Latitude | Longitude | Altitude | Speed | Heading |
|---|---|---|---|---|---|
| 2026-05-06 01:47 | 43.68198 | -79.59886 | 552 ft | 0 kts | 51° |
| 2026-05-06 01:50 | 43.68198 | -79.59887 | 552 ft | 1 kts | 49° |
| 2026-05-06 01:50 | 43.68193 | -79.59903 | 552 ft | 2 kts | 72° |
| 2026-05-06 01:51 | 43.68187 | -79.59924 | 553 ft | 2 kts | 66° |
| 2026-05-06 01:51 | 43.68183 | -79.59934 | 554 ft | 0 kts | 68° |
| 2026-05-06 01:51 | 43.68178 | -79.59946 | 554 ft | 1 kts | 24° |
| 2026-05-06 01:51 | 43.68164 | -79.59943 | 554 ft | 1 kts | 313° |
| 2026-05-06 01:52 | 43.68160 | -79.59935 | 554 ft | 0 kts | 283° |
| 2026-05-06 01:52 | 43.68160 | -79.59928 | 553 ft | 1 kts | 269° |
| 2026-05-06 01:52 | 43.68160 | -79.59923 | 553 ft | 0 kts | 275° |
| 2026-05-06 01:56 | 43.68159 | -79.59925 | 553 ft | 0 kts | 252° |
| 2026-05-06 01:56 | 43.68146 | -79.59933 | 554 ft | 4 kts | 213° |
| 2026-05-06 01:56 | 43.68113 | -79.59983 | 555 ft | 9 kts | 231° |
| 2026-05-06 01:56 | 43.68066 | -79.60084 | 556 ft | 15 kts | 242° |
| 2026-05-06 01:57 | 43.68012 | -79.60078 | 555 ft | 0 kts | 162° |
| 2026-05-06 01:57 | 43.68000 | -79.60066 | 554 ft | 6 kts | 135° |
| 2026-05-06 01:57 | 43.67976 | -79.59972 | 552 ft | 15 kts | 70° |
| 2026-05-06 01:58 | 43.68014 | -79.59819 | 549 ft | 21 kts | 123° |
| 2026-05-06 01:58 | 43.67923 | -79.59721 | 545 ft | 15 kts | 187° |
| 2026-05-06 01:58 | 43.67895 | -79.59741 | 546 ft | 0 kts | 222° |
| 2026-05-06 02:00 | 43.67891 | -79.59747 | 546 ft | 2 kts | 224° |
| 2026-05-06 02:00 | 43.67837 | -79.59823 | 546 ft | 26 kts | 230° |
| 2026-05-06 02:01 | 43.67522 | -79.60284 | 546 ft | 70 kts | 225° |
| 2026-05-06 02:01 | 43.67274 | -79.60651 | 552 ft | 88 kts | 229° |
| 2026-05-06 02:01 | 43.66658 | -79.61485 | 841 ft | 144 kts | 224° |
| 2026-05-06 02:01 | 43.65917 | -79.62419 | 1632 ft | 150 kts | 221° |
| 2026-05-06 02:02 | 43.65088 | -79.63248 | 2478 ft | 151 kts | 213° |
| 2026-05-06 02:02 | 43.64202 | -79.63868 | 3374 ft | 146 kts | 204° |
| 2026-05-06 02:02 | 43.63247 | -79.64291 | 4170 ft | 148 kts | 198° |
| 2026-05-06 02:02 | 43.62259 | -79.64673 | 4657 ft | 149 kts | 212° |
| 2026-05-06 02:03 | 43.61755 | -79.65778 | 4744 ft | 141 kts | 267° |
| 2026-05-06 02:03 | 43.61770 | -79.67122 | 4851 ft | 139 kts | 262° |
| 2026-05-06 02:03 | 43.61441 | -79.68378 | 4854 ft | 139 kts | 245° |
| 2026-05-06 02:03 | 43.60929 | -79.69521 | 4851 ft | 140 kts | 236° |
| 2026-05-06 02:04 | 43.60295 | -79.70543 | 4851 ft | 140 kts | 231° |
| 2026-05-06 02:04 | 43.59622 | -79.71515 | 4846 ft | 142 kts | 230° |
| 2026-05-06 02:04 | 43.58850 | -79.72396 | 4846 ft | 146 kts | 206° |
| 2026-05-06 02:04 | 43.57824 | -79.72378 | 4853 ft | 160 kts | 160° |
| 2026-05-06 02:05 | 43.56952 | -79.71387 | 4865 ft | 166 kts | 138° |
| 2026-05-06 02:05 | 43.56113 | -79.70017 | 4882 ft | 201 kts | 131° |
| 2026-05-06 02:05 | 43.55275 | -79.68421 | 4972 ft | 207 kts | 128° |
| 2026-05-06 02:05 | 43.54437 | -79.66779 | 5392 ft | 216 kts | 129° |
| 2026-05-06 02:06 | 43.53251 | -79.64492 | 6071 ft | 222 kts | 131° |
| 2026-05-06 02:06 | 43.52656 | -79.63348 | 6408 ft | 226 kts | 131° |
| 2026-05-06 02:06 | 43.51745 | -79.61594 | 6917 ft | 226 kts | 131° |
| 2026-05-06 02:06 | 43.50623 | -79.59113 | 7591 ft | 234 kts | 118° |
| 2026-05-06 02:07 | 43.50390 | -79.57653 | 7930 ft | 245 kts | 95° |
| 2026-05-06 02:07 | 43.50690 | -79.55336 | 8433 ft | 252 kts | 73° |
| 2026-05-06 02:07 | 43.51260 | -79.53036 | 8937 ft | 259 kts | 71° |
| 2026-05-06 02:07 | 43.51815 | -79.50639 | 9446 ft | 262 kts | 74° |
| 2026-05-06 02:08 | 43.52296 | -79.48253 | 9944 ft | 267 kts | 77° |
| 2026-05-06 02:08 | 43.52766 | -79.45778 | 10443 ft | 268 kts | 77° |
| 2026-05-06 02:08 | 43.53114 | -79.43256 | 10943 ft | 268 kts | 90° |
| 2026-05-06 02:08 | 43.52895 | -79.40775 | 11444 ft | 258 kts | 116° |
| 2026-05-06 02:09 | 43.52192 | -79.38535 | 11913 ft | 256 kts | 126° |
| 2026-05-06 02:09 | 43.51168 | -79.35610 | 12570 ft | 258 kts | 125° |
| 2026-05-06 02:09 | 43.50672 | -79.34109 | 12895 ft | 259 kts | 124° |
| 2026-05-06 02:09 | 43.49944 | -79.31800 | 13389 ft | 260 kts | 123° |
| 2026-05-06 02:10 | 43.49241 | -79.29507 | 13874 ft | 268 kts | 124° |
| 2026-05-06 02:10 | 43.48522 | -79.27141 | 14382 ft | 267 kts | 123° |
| 2026-05-06 02:10 | 43.47807 | -79.24792 | 14872 ft | 269 kts | 124° |
| 2026-05-06 02:10 | 43.47086 | -79.22440 | 15358 ft | 270 kts | 123° |
| 2026-05-06 02:11 | 43.46353 | -79.20054 | 15850 ft | 274 kts | 124° |
| 2026-05-06 02:11 | 43.45608 | -79.17640 | 16331 ft | 278 kts | 123° |
| 2026-05-06 02:11 | 43.44853 | -79.15184 | 16822 ft | 280 kts | 122° |
| 2026-05-06 02:11 | 43.44110 | -79.12726 | 17295 ft | 277 kts | 123° |
| 2026-05-06 02:12 | 43.43344 | -79.10242 | 17787 ft | 284 kts | 124° |
| 2026-05-06 02:12 | 43.42577 | -79.07787 | 18272 ft | 285 kts | 123° |
| 2026-05-06 02:12 | 43.41799 | -79.05294 | 18756 ft | 285 kts | 123° |
| 2026-05-06 02:12 | 43.40995 | -79.02743 | 19252 ft | 289 kts | 123° |
| 2026-05-06 02:13 | 43.40205 | -79.00236 | 19735 ft | 293 kts | 123° |
| 2026-05-06 02:13 | 43.39407 | -78.97645 | 20233 ft | 293 kts | 122° |
| 2026-05-06 02:13 | 43.38623 | -78.95090 | 20713 ft | 296 kts | 122° |
| 2026-05-06 02:13 | 43.37819 | -78.92507 | 21204 ft | 296 kts | 122° |
| 2026-05-06 02:14 | 43.37009 | -78.89906 | 21697 ft | 298 kts | 122° |
| 2026-05-06 02:14 | 43.36189 | -78.87260 | 22187 ft | 300 kts | 123° |
| 2026-05-06 02:14 | 43.35380 | -78.84646 | 22681 ft | 302 kts | 123° |
| 2026-05-06 02:14 | 43.34580 | -78.81942 | 23183 ft | 307 kts | 122° |
| 2026-05-06 02:15 | 43.33762 | -78.79265 | 23669 ft | 308 kts | 123° |
| 2026-05-06 02:15 | 43.32902 | -78.76580 | 24174 ft | 310 kts | 122° |
| 2026-05-06 02:15 | 43.32014 | -78.73861 | 24679 ft | 317 kts | 123° |
| 2026-05-06 02:15 | 43.30810 | -78.70117 | 25380 ft | 326 kts | 122° |
| 2026-05-06 02:16 | 43.30217 | -78.68245 | 25724 ft | 330 kts | 123° |
| 2026-05-06 02:16 | 43.29292 | -78.65319 | 26256 ft | 336 kts | 122° |
| 2026-05-06 02:16 | 43.28371 | -78.62377 | 26779 ft | 341 kts | 121° |
| 2026-05-06 02:16 | 43.27451 | -78.59369 | 27310 ft | 345 kts | 122° |
| 2026-05-06 02:17 | 43.26493 | -78.56338 | 27848 ft | 348 kts | 123° |
| 2026-05-06 02:17 | 43.25502 | -78.53306 | 28390 ft | 352 kts | 122° |
| 2026-05-06 02:17 | 43.24524 | -78.50257 | 28930 ft | 355 kts | 122° |
| 2026-05-06 02:17 | 43.23537 | -78.47131 | 29474 ft | 358 kts | 122° |
| 2026-05-06 02:18 | 43.22544 | -78.43986 | 29850 ft | 366 kts | 122° |
| 2026-05-06 02:18 | 43.21532 | -78.40801 | 29872 ft | 373 kts | 122° |
| 2026-05-06 02:18 | 43.19391 | -78.34171 | 29873 ft | 383 kts | 124° |
| 2026-05-06 02:19 | 43.16617 | -78.28055 | 29876 ft | 379 kts | 138° |
| 2026-05-06 02:19 | 43.13200 | -78.22513 | 29878 ft | 383 kts | 141° |
| 2026-05-06 02:20 | 43.08037 | -78.14159 | 29884 ft | 387 kts | 140° |
| 2026-05-06 02:21 | 43.04572 | -78.08442 | 29882 ft | 389 kts | 139° |
| 2026-05-06 02:21 | 43.01165 | -78.02773 | 29880 ft | 390 kts | 139° |
| 2026-05-06 02:22 | 42.97741 | -77.97080 | 29880 ft | 386 kts | 139° |
| 2026-05-06 02:22 | 42.94311 | -77.91403 | 29873 ft | 387 kts | 138° |
| 2026-05-06 02:23 | 42.91242 | -77.85349 | 29871 ft | 402 kts | 123° |
| 2026-05-06 02:23 | 42.90234 | -77.81755 | 29878 ft | 407 kts | 112° |
| 2026-05-06 02:23 | 42.89493 | -77.78044 | 29875 ft | 409 kts | 109° |
| 2026-05-06 02:24 | 42.88091 | -77.70561 | 29869 ft | 408 kts | 109° |
| 2026-05-06 02:24 | 42.86627 | -77.63056 | 29865 ft | 407 kts | 110° |
| 2026-05-06 02:25 | 42.85126 | -77.55563 | 29878 ft | 416 kts | 110° |
| 2026-05-06 02:25 | 42.83577 | -77.47930 | 29875 ft | 425 kts | 110° |
| 2026-05-06 02:26 | 42.81984 | -77.40095 | 29878 ft | 434 kts | 109° |
| 2026-05-06 02:26 | 42.80344 | -77.32098 | 29877 ft | 442 kts | 110° |
| 2026-05-06 02:27 | 42.78683 | -77.23988 | 29818 ft | 450 kts | 110° |
| 2026-05-06 02:27 | 42.78191 | -77.21595 | 29776 ft | 453 kts | 110° |
| 2026-05-06 02:28 | 42.77352 | -77.17511 | 29701 ft | 458 kts | 110° |
| 2026-05-06 02:28 | 42.75656 | -77.09280 | 29541 ft | 467 kts | 110° |
| 2026-05-06 02:29 | 42.74179 | -77.02136 | 29409 ft | 474 kts | 110° |
| 2026-05-06 02:29 | 42.72380 | -76.93467 | 29246 ft | 482 kts | 109° |
| 2026-05-06 02:30 | 42.70541 | -76.84655 | 29080 ft | 489 kts | 109° |
| 2026-05-06 02:30 | 42.69299 | -76.78715 | 28969 ft | 494 kts | 109° |
| 2026-05-06 02:30 | 42.68671 | -76.75723 | 28914 ft | 497 kts | 110° |
| 2026-05-06 02:31 | 42.66761 | -76.66660 | 28750 ft | 503 kts | 110° |
| 2026-05-06 02:31 | 42.64474 | -76.57658 | 28581 ft | 506 kts | 116° |
| 2026-05-06 02:32 | 42.61576 | -76.48995 | 28419 ft | 510 kts | 120° |
| 2026-05-06 02:32 | 42.58463 | -76.40318 | 28256 ft | 512 kts | 120° |
| 2026-05-06 02:33 | 42.55339 | -76.31622 | 28091 ft | 514 kts | 121° |
| 2026-05-06 02:33 | 42.54314 | -76.28746 | 28038 ft | 515 kts | 121° |
| 2026-05-06 02:34 | 42.49194 | -76.14248 | 27767 ft | 510 kts | 120° |
| 2026-05-06 02:34 | 42.47661 | -76.09886 | 27687 ft | 510 kts | 120° |
| 2026-05-06 02:34 | 42.46151 | -76.05595 | 27611 ft | 510 kts | 120° |
| 2026-05-06 02:34 | 42.44621 | -76.01253 | 27524 ft | 510 kts | 120° |
| 2026-05-06 02:35 | 42.43103 | -75.96952 | 27447 ft | 511 kts | 120° |
| 2026-05-06 02:35 | 42.41581 | -75.92640 | 27365 ft | 508 kts | 120° |
| 2026-05-06 02:35 | 42.40054 | -75.88322 | 27288 ft | 508 kts | 120° |
| 2026-05-06 02:35 | 42.38530 | -75.84022 | 27205 ft | 509 kts | 120° |
| 2026-05-06 02:36 | 42.37004 | -75.79726 | 27131 ft | 508 kts | 120° |
| 2026-05-06 02:36 | 42.35476 | -75.75431 | 27276 ft | 508 kts | 120° |
| 2026-05-06 02:36 | 42.33948 | -75.71143 | 27754 ft | 512 kts | 120° |
| 2026-05-06 02:36 | 42.32417 | -75.66845 | 28279 ft | 513 kts | 120° |
| 2026-05-06 02:37 | 42.30864 | -75.62497 | 28827 ft | 514 kts | 120° |
| 2026-05-06 02:37 | 42.29321 | -75.58184 | 29363 ft | 513 kts | 119° |
| 2026-05-06 02:37 | 42.27776 | -75.53867 | 29799 ft | 513 kts | 119° |
| 2026-05-06 02:38 | 42.24673 | -75.45215 | 29864 ft | 509 kts | 120° |
| 2026-05-06 02:38 | 42.21608 | -75.36696 | 29870 ft | 507 kts | 119° |
| 2026-05-06 02:39 | 42.18545 | -75.28231 | 29871 ft | 505 kts | 120° |
| 2026-05-06 02:39 | 42.15435 | -75.19669 | 29876 ft | 506 kts | 120° |
| 2026-05-06 02:40 | 42.12347 | -75.11189 | 29843 ft | 506 kts | 120° |
| 2026-05-06 02:40 | 42.10828 | -75.07015 | 29533 ft | 495 kts | 120° |
| 2026-05-06 02:40 | 42.09329 | -75.02884 | 29175 ft | 481 kts | 120° |
| 2026-05-06 02:40 | 42.07883 | -74.98910 | 28826 ft | 471 kts | 120° |
| 2026-05-06 02:41 | 42.06457 | -74.95001 | 28472 ft | 467 kts | 120° |
| 2026-05-06 02:41 | 42.05022 | -74.91090 | 28126 ft | 468 kts | 121° |
| 2026-05-06 02:41 | 42.03582 | -74.87174 | 27779 ft | 468 kts | 121° |
| 2026-05-06 02:41 | 42.02140 | -74.83259 | 27399 ft | 468 kts | 121° |
| 2026-05-06 02:42 | 42.00711 | -74.79386 | 26885 ft | 469 kts | 121° |
| 2026-05-06 02:42 | 41.99262 | -74.75459 | 26341 ft | 463 kts | 121° |
| 2026-05-06 02:42 | 41.97838 | -74.71606 | 25818 ft | 467 kts | 121° |
| 2026-05-06 02:42 | 41.96409 | -74.67750 | 25309 ft | 468 kts | 121° |
| 2026-05-06 02:43 | 41.94966 | -74.63852 | 24785 ft | 466 kts | 121° |
| 2026-05-06 02:43 | 41.93526 | -74.59961 | 24254 ft | 461 kts | 121° |
| 2026-05-06 02:43 | 41.92115 | -74.56149 | 23733 ft | 455 kts | 121° |
| 2026-05-06 02:43 | 41.90713 | -74.52368 | 23210 ft | 451 kts | 121° |
| 2026-05-06 02:44 | 41.89313 | -74.48601 | 22701 ft | 447 kts | 121° |
| 2026-05-06 02:44 | 41.87935 | -74.44899 | 22202 ft | 446 kts | 121° |
| 2026-05-06 02:44 | 41.86573 | -74.41248 | 21703 ft | 441 kts | 121° |
| 2026-05-06 02:44 | 41.85250 | -74.37702 | 21218 ft | 439 kts | 121° |
| 2026-05-06 02:45 | 41.83894 | -74.34070 | 20719 ft | 425 kts | 122° |
| 2026-05-06 02:45 | 41.82631 | -74.30634 | 20240 ft | 404 kts | 121° |
| 2026-05-06 02:45 | 41.81435 | -74.27331 | 19724 ft | 388 kts | 121° |
| 2026-05-06 02:45 | 41.80267 | -74.24159 | 19233 ft | 373 kts | 122° |
| 2026-05-06 02:46 | 41.79131 | -74.21111 | 18725 ft | 361 kts | 122° |
| 2026-05-06 02:46 | 41.78018 | -74.18158 | 18212 ft | 350 kts | 123° |
| 2026-05-06 02:46 | 41.76937 | -74.15313 | 17610 ft | 341 kts | 123° |
| 2026-05-06 02:46 | 41.75873 | -74.12521 | 17099 ft | 333 kts | 123° |
| 2026-05-06 02:47 | 41.74929 | -74.09753 | 16631 ft | 327 kts | 116° |
| 2026-05-06 02:47 | 41.74443 | -74.06803 | 16197 ft | 326 kts | 97° |
| 2026-05-06 02:47 | 41.74853 | -74.03889 | 15646 ft | 321 kts | 69° |
| 2026-05-06 02:47 | 41.74888 | -74.01177 | 15579 ft | 279 kts | 130° |
| 2026-05-06 02:48 | 41.73747 | -73.99158 | 15775 ft | 274 kts | 131° |
| 2026-05-06 02:48 | 41.72889 | -73.95956 | 15642 ft | 275 kts | 111° |
| 2026-05-06 02:48 | 41.72404 | -73.94441 | 15950 ft | 263 kts | 130° |
| 2026-05-06 02:48 | 41.71186 | -73.92639 | 16135 ft | 260 kts | 148° |
| 2026-05-06 02:49 | 41.69775 | -73.91152 | 15940 ft | 264 kts | 149° |
| 2026-05-06 02:49 | 41.68407 | -73.89546 | 15502 ft | 260 kts | 149° |
| 2026-05-06 02:49 | 41.67351 | -73.87563 | 15044 ft | 274 kts | 114° |
| 2026-05-06 02:49 | 41.66655 | -73.85201 | 14474 ft | 270 kts | 125° |
| 2026-05-06 02:50 | 41.65508 | -73.83444 | 14215 ft | 248 kts | 153° |
| 2026-05-06 02:50 | 41.63933 | -73.82611 | 13447 ft | 245 kts | 179° |
| 2026-05-06 02:50 | 41.62300 | -73.82893 | 12676 ft | 241 kts | 207° |
| 2026-05-06 02:50 | 41.60845 | -73.84003 | 11934 ft | 242 kts | 220° |
| 2026-05-06 02:51 | 41.59741 | -73.85642 | 11199 ft | 243 kts | 237° |
| 2026-05-06 02:51 | 41.58679 | -73.87407 | 10465 ft | 248 kts | 225° |
| 2026-05-06 02:51 | 41.57122 | -73.88445 | 9676 ft | 261 kts | 197° |
| 2026-05-06 02:51 | 41.55624 | -73.89239 | 10022 ft | 216 kts | 217° |
| 2026-05-06 02:52 | 41.54348 | -73.90331 | 9453 ft | 221 kts | 219° |
| 2026-05-06 02:52 | 41.53161 | -73.91533 | 8668 ft | 211 kts | 225° |
| 2026-05-06 02:52 | 41.52195 | -73.92902 | 7895 ft | 202 kts | 235° |
| 2026-05-06 02:52 | 41.51402 | -73.94392 | 7122 ft | 198 kts | 229° |
| 2026-05-06 02:53 | 41.50252 | -73.95358 | 6349 ft | 197 kts | 213° |
| 2026-05-06 02:53 | 41.49116 | -73.96276 | 5583 ft | 193 kts | 219° |
| 2026-05-06 02:53 | 41.48077 | -73.97302 | 5304 ft | 170 kts | 220° |
| 2026-05-06 02:53 | 41.47154 | -73.98199 | 5539 ft | 163 kts | 220° |
| 2026-05-06 02:54 | 41.46223 | -73.99071 | 5737 ft | 163 kts | 219° |
| 2026-05-06 02:54 | 41.45266 | -73.99913 | 5932 ft | 163 kts | 218° |
| 2026-05-06 02:54 | 41.44289 | -74.00696 | 6128 ft | 167 kts | 215° |
| 2026-05-06 02:54 | 41.43266 | -74.01424 | 6321 ft | 165 kts | 216° |
| 2026-05-06 02:55 | 41.42350 | -74.02353 | 6636 ft | 171 kts | 224° |
| 2026-05-06 02:55 | 41.41507 | -74.03372 | 6650 ft | 163 kts | 230° |
| 2026-05-06 02:55 | 41.40644 | -74.04378 | 6664 ft | 167 kts | 219° |
| 2026-05-06 02:55 | 41.39685 | -74.05233 | 6690 ft | 167 kts | 214° |
| 2026-05-06 02:56 | 41.38717 | -74.06059 | 6720 ft | 164 kts | 221° |
| 2026-05-06 02:56 | 41.37707 | -74.06684 | 6680 ft | 191 kts | 172° |
| 2026-05-06 02:56 | 41.36471 | -74.06343 | 6645 ft | 163 kts | 207° |
| 2026-05-06 02:56 | 41.35457 | -74.07097 | 6301 ft | 172 kts | 223° |
| 2026-05-06 02:57 | 41.34586 | -74.08154 | 5641 ft | 170 kts | 226° |
| 2026-05-06 02:57 | 41.33759 | -74.09208 | 5379 ft | 159 kts | 227° |
| 2026-05-06 02:57 | 41.32968 | -74.10248 | 5184 ft | 162 kts | 226° |
| 2026-05-06 02:57 | 41.32143 | -74.11211 | 5120 ft | 158 kts | 222° |
| 2026-05-06 02:58 | 41.31243 | -74.12096 | 5050 ft | 162 kts | 218° |
| 2026-05-06 02:58 | 41.30293 | -74.12867 | 4968 ft | 159 kts | 214° |
| 2026-05-06 02:58 | 41.29372 | -74.13696 | 4832 ft | 157 kts | 218° |
| 2026-05-06 02:58 | 41.28455 | -74.14487 | 4812 ft | 159 kts | 217° |
| 2026-05-06 02:59 | 41.27506 | -74.15250 | 4989 ft | 161 kts | 216° |
| 2026-05-06 02:59 | 41.26563 | -74.16019 | 5054 ft | 162 kts | 223° |
| 2026-05-06 02:59 | 41.25674 | -74.16894 | 5150 ft | 163 kts | 219° |
| 2026-05-06 02:59 | 41.24760 | -74.17758 | 4963 ft | 158 kts | 221° |
| 2026-05-06 03:00 | 41.23886 | -74.18629 | 4942 ft | 155 kts | 221° |
| 2026-05-06 03:00 | 41.22971 | -74.19434 | 4999 ft | 160 kts | 217° |
| 2026-05-06 03:00 | 41.22015 | -74.20181 | 5171 ft | 158 kts | 218° |
| 2026-05-06 03:00 | 41.21006 | -74.21011 | 4823 ft | 165 kts | 217° |
| 2026-05-06 03:01 | 41.20101 | -74.21867 | 4762 ft | 163 kts | 220° |
| 2026-05-06 03:01 | 41.19172 | -74.22683 | 4479 ft | 156 kts | 218° |
| 2026-05-06 03:01 | 41.18338 | -74.23617 | 4422 ft | 155 kts | 226° |
| 2026-05-06 03:01 | 41.17476 | -74.24479 | 4535 ft | 158 kts | 222° |
| 2026-05-06 03:02 | 41.16614 | -74.25358 | 4344 ft | 156 kts | 221° |
| 2026-05-06 03:02 | 41.15869 | -74.26383 | 4211 ft | 153 kts | 237° |
| 2026-05-06 03:02 | 41.15609 | -74.27759 | 4170 ft | 159 kts | 266° |
| 2026-05-06 03:02 | 41.15631 | -74.29237 | 4188 ft | 156 kts | 254° |
| 2026-05-06 03:03 | 41.14922 | -74.30204 | 4184 ft | 166 kts | 191° |
| 2026-05-06 03:03 | 41.13733 | -74.29988 | 3861 ft | 172 kts | 187° |
| 2026-05-06 03:03 | 41.12695 | -74.29991 | 4334 ft | 139 kts | 205° |
| 2026-05-06 03:03 | 41.11746 | -74.30463 | 4518 ft | 149 kts | 214° |
| 2026-05-06 03:04 | 41.10751 | -74.31020 | 4658 ft | 158 kts | 206° |
| 2026-05-06 03:04 | 41.09732 | -74.31553 | 4957 ft | 161 kts | 211° |
| 2026-05-06 03:04 | 41.08759 | -74.32271 | 4977 ft | 158 kts | 218° |
| 2026-05-06 03:04 | 41.07787 | -74.32994 | 5001 ft | 160 kts | 213° |
| 2026-05-06 03:05 | 41.06764 | -74.33599 | 4824 ft | 164 kts | 215° |
| 2026-05-06 03:05 | 41.05815 | -74.34388 | 4465 ft | 158 kts | 217° |
| 2026-05-06 03:05 | 41.04870 | -74.35131 | 4044 ft | 158 kts | 210° |
| 2026-05-06 03:05 | 41.03858 | -74.35564 | 4242 ft | 158 kts | 201° |
| 2026-05-06 03:06 | 41.02693 | -74.35415 | 4469 ft | 181 kts | 170° |
| 2026-05-06 03:06 | 41.01575 | -74.34525 | 4733 ft | 195 kts | 154° |
| 2026-05-06 03:06 | 41.00589 | -74.33294 | 4992 ft | 196 kts | 146° |
| 2026-05-06 03:06 | 40.99791 | -74.31715 | 5514 ft | 215 kts | 128° |
| 2026-05-06 03:07 | 40.99107 | -74.29947 | 5873 ft | 221 kts | 129° |
| 2026-05-06 03:07 | 40.98380 | -74.28154 | 6165 ft | 221 kts | 128° |
| 2026-05-06 03:07 | 40.97639 | -74.26415 | 6436 ft | 218 kts | 132° |
| 2026-05-06 03:07 | 40.96878 | -74.24673 | 6706 ft | 223 kts | 128° |
| 2026-05-06 03:08 | 40.96148 | -74.22877 | 6993 ft | 222 kts | 128° |
| 2026-05-06 03:08 | 40.95367 | -74.21182 | 7260 ft | 219 kts | 136° |
| 2026-05-06 03:08 | 40.94340 | -74.19754 | 7514 ft | 210 kts | 149° |
| 2026-05-06 03:08 | 40.93315 | -74.18349 | 7762 ft | 218 kts | 137° |
| 2026-05-06 03:09 | 40.92455 | -74.16679 | 8052 ft | 211 kts | 133° |
| 2026-05-06 03:09 | 40.91611 | -74.15007 | 8119 ft | 220 kts | 133° |
| 2026-05-06 03:09 | 40.90751 | -74.13375 | 8166 ft | 220 kts | 134° |
| 2026-05-06 03:09 | 40.89853 | -74.11727 | 8237 ft | 220 kts | 137° |
| 2026-05-06 03:10 | 40.89089 | -74.10014 | 8273 ft | 239 kts | 121° |
| 2026-05-06 03:10 | 40.88266 | -74.08187 | 8041 ft | 225 kts | 136° |
| 2026-05-06 03:10 | 40.87280 | -74.06593 | 7463 ft | 220 kts | 142° |
| 2026-05-06 03:10 | 40.86243 | -74.05157 | 7049 ft | 217 kts | 143° |
| 2026-05-06 03:11 | 40.85276 | -74.03637 | 6488 ft | 219 kts | 136° |
| 2026-05-06 03:11 | 40.84489 | -74.01914 | 6042 ft | 217 kts | 128° |
| 2026-05-06 03:11 | 40.83765 | -74.00221 | 5926 ft | 208 kts | 130° |
| 2026-05-06 03:11 | 40.83194 | -73.98428 | 5311 ft | 217 kts | 124° |
| 2026-05-06 03:12 | 40.82601 | -73.96643 | 5055 ft | 198 kts | 125° |
| 2026-05-06 03:12 | 40.82045 | -73.94991 | 4632 ft | 198 kts | 124° |
| 2026-05-06 03:12 | 40.81516 | -73.93371 | 4332 ft | 188 kts | 127° |
| 2026-05-06 03:12 | 40.80944 | -73.91882 | 4024 ft | 177 kts | 134° |
| 2026-05-06 03:13 | 40.80273 | -73.90569 | 3698 ft | 167 kts | 143° |
| 2026-05-06 03:13 | 40.79523 | -73.89497 | 3371 ft | 158 kts | 153° |
| 2026-05-06 03:13 | 40.79044 | -73.88150 | 3184 ft | 172 kts | 115° |
| 2026-05-06 03:13 | 40.78773 | -73.86597 | 2813 ft | 175 kts | 114° |
| 2026-05-06 03:14 | 40.78508 | -73.85150 | 2781 ft | 150 kts | 118° |
| 2026-05-06 03:14 | 40.78616 | -73.83762 | 2403 ft | 187 kts | 70° |
| 2026-05-06 03:14 | 40.79183 | -73.82014 | 2538 ft | 209 kts | 78° |
| 2026-05-06 03:14 | 40.79550 | -73.80291 | 2559 ft | 180 kts | 87° |
| 2026-05-06 03:15 | 40.79644 | -73.78741 | 2395 ft | 163 kts | 104° |
| 2026-05-06 03:15 | 40.79593 | -73.77290 | 2229 ft | 147 kts | 115° |
| 2026-05-06 03:15 | 40.79294 | -73.76118 | 2102 ft | 128 kts | 128° |
| 2026-05-06 03:15 | 40.79003 | -73.75019 | 1943 ft | 138 kts | 122° |
| 2026-05-06 03:16 | 40.79342 | -73.73674 | 2204 ft | 175 kts | 46° |
| 2026-05-06 03:16 | 40.80118 | -73.72449 | 2092 ft | 166 kts | 82° |
| 2026-05-06 03:16 | 40.79991 | -73.71123 | 2328 ft | 132 kts | 143° |
| 2026-05-06 03:16 | 40.79355 | -73.70472 | 2591 ft | 117 kts | 173° |
| 2026-05-06 03:17 | 40.78587 | -73.70184 | 2327 ft | 114 kts | 181° |
| 2026-05-06 03:17 | 40.77860 | -73.69991 | 2237 ft | 98 kts | 185° |
| 2026-05-06 03:17 | 40.77190 | -73.69900 | 2028 ft | 99 kts | 179° |
| 2026-05-06 03:17 | 40.76518 | -73.69704 | 1811 ft | 92 kts | 196° |
| 2026-05-06 03:18 | 40.75949 | -73.69932 | 1611 ft | 86 kts | 197° |
| 2026-05-06 03:18 | 40.75293 | -73.70106 | 1658 ft | 106 kts | 202° |
| 2026-05-06 03:18 | 40.74670 | -73.70515 | 1855 ft | 91 kts | 197° |
| 2026-05-06 03:18 | 40.74020 | -73.70681 | 1507 ft | 98 kts | 199° |
| 2026-05-06 03:19 | 40.73387 | -73.70894 | 1363 ft | 87 kts | 202° |
| 2026-05-06 03:19 | 40.72811 | -73.71056 | 1160 ft | 90 kts | 185° |